Mission Square, Washington
Current Conditions -  °F | °C
As of 10:55 AM on Friday 28 Nov 2014 (Local Time) from KEAT Reporting Station
Clear Clear  
Wind Chill: 56°   Ceiling: Unl
Heat Index: 56°   Visibility: NA
Dew Point: 42°   Wind: 8mph
Humidity: 60%   Direction: 150°SSE
Pressure: 29.37"   Gusts: NA
Location:  47.3635°N, 120.348°W
Report Text: KEAT 281855Z AUTO 15007KT CLR 13/06 A2937 RMK AO2 SLP945 T01330056
Loading
Personal Weather Stations






























Interactive Weather Map New forecast layout! Learn more

10-Day Weather Forecast

Advertisements
Track Severe Weather on mobile